createdAt,value
2022-12-20T00:01:23.346Z,17.30
2022-12-20T00:04:12.605Z,19.10
2022-12-20T00:06:59.594Z,18.07
2022-12-20T00:09:46.619Z,18.13
2022-12-20T00:12:33.612Z,18.90
2022-12-20T00:15:20.647Z,18.03
2022-12-20T00:18:07.725Z,18.00
2022-12-20T00:20:59.200Z,16.70
2022-12-20T00:23:46.152Z,18.37
2022-12-20T00:26:34.448Z,18.77
2022-12-20T00:29:21.455Z,17.30
2022-12-20T00:32:08.471Z,17.90
2022-12-20T00:34:55.847Z,17.73
2022-12-20T00:37:42.826Z,17.20
2022-12-20T00:40:29.796Z,17.73
2022-12-20T00:43:16.761Z,16.87
2022-12-20T00:46:04.115Z,18.00
2022-12-20T00:48:53.720Z,18.00
2022-12-20T00:51:40.683Z,19.10
2022-12-20T00:54:27.759Z,17.80
2022-12-20T00:57:14.780Z,18.37
2022-12-20T01:00:01.740Z,17.57
2022-12-20T01:02:49.326Z,17.17
2022-12-20T01:05:36.477Z,16.77
2022-12-20T01:08:24.374Z,17.23
2022-12-20T01:11:16.963Z,17.30
2022-12-20T01:14:07.878Z,18.03
2022-12-20T01:16:55.129Z,18.00
2022-12-20T01:19:42.172Z,20.27
2022-12-20T01:22:29.235Z,19.77
2022-12-20T01:25:16.417Z,17.60
2022-12-20T01:28:03.594Z,16.43
2022-12-20T01:30:50.580Z,17.17
2022-12-20T01:33:37.980Z,17.43
2022-12-20T01:36:28.774Z,17.77
2022-12-20T01:39:17.256Z,17.40
2022-12-20T01:42:04.919Z,18.47
2022-12-20T01:44:56.013Z,16.87
2022-12-20T01:47:43.202Z,17.70
2022-12-20T01:50:30.166Z,16.77
2022-12-20T01:53:20.319Z,17.20
2022-12-20T01:56:09.421Z,17.80
2022-12-20T01:58:58.097Z,17.27
2022-12-20T02:01:45.322Z,17.43
2022-12-20T02:04:32.518Z,17.63
2022-12-20T02:07:26.952Z,18.07
2022-12-20T02:10:15.519Z,17.77
2022-12-20T02:13:11.472Z,18.53
2022-12-20T02:15:58.758Z,17.17
2022-12-20T02:18:57.864Z,17.17
2022-12-20T02:22:26.200Z,17.13
2022-12-20T02:25:42.214Z,16.73
2022-12-20T02:28:54.645Z,17.53
2022-12-20T02:31:55.139Z,16.97
2022-12-20T02:34:42.836Z,17.30
2022-12-20T02:37:30.007Z,18.27
2022-12-20T02:40:21.752Z,17.63
2022-12-20T02:43:29.365Z,17.10
2022-12-20T02:46:19.831Z,17.07
2022-12-20T02:49:13.548Z,17.17
2022-12-20T02:52:01.688Z,17.47
2022-12-20T02:54:49.076Z,16.50
2022-12-20T02:58:00.665Z,17.17
2022-12-20T03:00:50.873Z,18.23
2022-12-20T03:03:38.328Z,17.53
2022-12-20T03:06:26.125Z,18.20
2022-12-20T03:09:13.349Z,18.50
2022-12-20T03:12:00.637Z,17.70
2022-12-20T03:14:47.810Z,16.93
2022-12-20T03:17:35.773Z,18.37
2022-12-20T03:20:23.117Z,17.93
2022-12-20T03:23:10.274Z,18.23
2022-12-20T03:25:57.396Z,18.27
2022-12-20T03:28:51.615Z,18.13
2022-12-20T03:31:41.221Z,18.73
2022-12-20T03:34:28.244Z,18.57
2022-12-20T03:37:16.320Z,18.73
2022-12-20T03:40:03.792Z,19.63
2022-12-20T03:42:50.857Z,19.07
2022-12-20T03:45:37.825Z,19.93
2022-12-20T03:48:24.833Z,18.77
2022-12-20T03:51:11.965Z,18.20
2022-12-20T03:53:59.487Z,18.30
2022-12-20T03:57:01.820Z,18.47
2022-12-20T03:59:49.697Z,18.60
2022-12-20T04:02:38.927Z,17.20
2022-12-20T04:05:27.488Z,19.13
2022-12-20T04:08:14.511Z,19.00
2022-12-20T04:11:16.666Z,17.27
2022-12-20T04:14:23.962Z,18.23
2022-12-20T04:17:11.553Z,18.57
2022-12-20T04:19:59.066Z,19.03
2022-12-20T04:22:48.094Z,18.80
2022-12-20T04:25:35.329Z,17.80
2022-12-20T04:28:22.307Z,18.00
2022-12-20T04:31:11.098Z,18.97
2022-12-20T04:33:59.235Z,17.87
2022-12-20T04:36:46.555Z,17.40
2022-12-20T04:39:40.368Z,17.90
2022-12-20T04:42:50.008Z,18.77
2022-12-20T04:45:37.939Z,17.93
2022-12-20T04:51:34.344Z,17.80
2022-12-20T04:54:21.291Z,18.33
2022-12-20T04:57:18.380Z,18.07
2022-12-20T05:00:06.486Z,18.07
2022-12-20T05:02:53.602Z,17.97
2022-12-20T05:05:43.392Z,18.80
2022-12-20T05:08:30.514Z,18.47
2022-12-20T05:11:17.845Z,18.20
2022-12-20T05:14:04.817Z,18.43
2022-12-20T05:16:51.792Z,18.37
2022-12-20T05:19:39.228Z,18.30
2022-12-20T05:22:45.125Z,18.03
2022-12-20T05:25:52.233Z,18.73
2022-12-20T05:28:39.328Z,19.03
2022-12-20T05:31:26.870Z,18.33
2022-12-20T05:34:14.344Z,17.70
2022-12-20T05:37:04.574Z,18.30
2022-12-20T05:39:53.879Z,18.50
2022-12-20T05:42:44.612Z,18.83
2022-12-20T05:45:32.434Z,18.30
2022-12-20T05:48:24.307Z,19.07
2022-12-20T05:51:12.629Z,18.67
2022-12-20T05:54:13.971Z,19.00
2022-12-20T05:57:16.183Z,17.77
2022-12-20T06:00:05.228Z,18.20
2022-12-20T06:02:52.595Z,18.47
2022-12-20T06:05:41.457Z,18.33
2022-12-20T06:08:28.551Z,17.63
2022-12-20T06:11:17.085Z,17.40
2022-12-20T06:14:21.684Z,17.60
2022-12-20T06:17:08.804Z,18.60
2022-12-20T06:19:56.897Z,17.57
2022-12-20T06:22:44.235Z,18.23
2022-12-20T06:25:33.551Z,17.83
2022-12-20T06:28:22.202Z,18.67
2022-12-20T06:31:11.123Z,17.50
2022-12-20T06:34:10.248Z,17.47
2022-12-20T06:37:00.769Z,18.83
2022-12-20T06:39:51.200Z,17.47
2022-12-20T06:42:38.637Z,18.93
2022-12-20T06:45:26.881Z,17.60
2022-12-20T06:48:14.688Z,17.90
2022-12-20T06:51:03.636Z,18.47
2022-12-20T06:53:50.962Z,18.20
2022-12-20T06:56:41.542Z,19.13
2022-12-20T06:59:30.861Z,17.63
2022-12-20T07:02:18.145Z,17.30
2022-12-20T07:05:05.813Z,18.17
2022-12-20T07:07:52.757Z,18.60
2022-12-20T07:10:39.725Z,19.63
2022-12-20T07:13:26.684Z,19.80
2022-12-20T07:16:14.897Z,19.40
2022-12-20T07:19:02.335Z,19.80
2022-12-20T07:21:49.352Z,19.03
2022-12-20T07:24:36.486Z,18.83
2022-12-20T07:27:23.463Z,19.90
2022-12-20T07:30:10.709Z,19.20
2022-12-20T07:32:58.569Z,19.17
2022-12-20T07:35:52.414Z,18.83
2022-12-20T07:38:41.965Z,19.97
2022-12-20T07:41:28.951Z,18.57
2022-12-20T07:44:15.930Z,19.07
2022-12-20T07:47:03.073Z,17.57
2022-12-20T07:49:50.014Z,19.97
2022-12-20T07:52:38.899Z,17.37
2022-12-20T07:55:26.413Z,18.07
2022-12-20T07:58:14.789Z,18.83
2022-12-20T08:01:02.741Z,19.60
2022-12-20T08:03:56.378Z,19.20
2022-12-20T08:06:43.897Z,18.20
2022-12-20T08:09:37.528Z,17.67
2022-12-20T08:12:25.849Z,19.00
2022-12-20T08:15:13.543Z,18.47
2022-12-20T08:18:00.833Z,18.07
2022-12-20T08:20:48.438Z,18.07
2022-12-20T08:23:35.501Z,18.60
2022-12-20T08:26:22.642Z,17.43
2022-12-20T08:29:09.706Z,19.47
2022-12-20T08:31:57.022Z,19.70
2022-12-20T08:34:43.972Z,18.27
2022-12-20T08:37:30.916Z,17.80
2022-12-20T08:40:18.998Z,18.00
2022-12-20T08:43:10.169Z,18.07
2022-12-20T08:45:57.574Z,17.80
2022-12-20T08:48:44.620Z,18.40
2022-12-20T08:51:31.982Z,19.20
2022-12-20T08:54:19.058Z,19.37
2022-12-20T08:57:06.015Z,18.77
2022-12-20T08:59:52.961Z,18.70
2022-12-20T09:02:41.317Z,19.30
2022-12-20T09:05:28.441Z,18.60
2022-12-20T09:08:16.823Z,18.90
2022-12-20T09:11:15.376Z,18.70
2022-12-20T09:14:03.082Z,19.77
2022-12-20T09:16:50.016Z,19.47
2022-12-20T09:19:37.000Z,19.33
2022-12-20T09:22:23.943Z,18.57
2022-12-20T09:25:10.856Z,20.03
2022-12-20T09:27:57.855Z,20.87
2022-12-20T09:30:44.872Z,20.37
2022-12-20T09:33:33.271Z,20.93
2022-12-20T09:36:21.752Z,19.80
2022-12-20T09:39:09.329Z,19.63
2022-12-20T09:41:57.639Z,19.97
2022-12-20T09:44:44.664Z,19.87
2022-12-20T09:47:34.546Z,19.00
2022-12-20T09:50:37.414Z,19.40
2022-12-20T09:53:58.300Z,18.77
2022-12-20T09:56:58.684Z,17.90
2022-12-20T09:59:49.464Z,17.67
2022-12-20T10:06:06.909Z,19.33
2022-12-20T10:08:56.754Z,18.23
2022-12-20T10:12:00.731Z,17.97
2022-12-20T10:15:13.665Z,18.00
2022-12-20T10:18:06.767Z,18.70
2022-12-20T10:21:21.323Z,19.73
2022-12-20T10:24:14.516Z,18.67
2022-12-20T10:27:15.192Z,18.20
2022-12-20T10:30:02.165Z,19.43
2022-12-20T10:32:51.900Z,19.20
2022-12-20T10:35:41.019Z,17.80
2022-12-20T10:38:46.156Z,18.73
2022-12-20T10:41:44.914Z,17.73
2022-12-20T10:44:32.787Z,17.37
2022-12-20T10:47:36.054Z,17.73
2022-12-20T10:50:25.140Z,17.17
2022-12-20T10:53:19.182Z,18.57
2022-12-20T10:56:09.103Z,18.03
2022-12-20T10:59:02.586Z,17.03
2022-12-20T11:01:50.456Z,18.97
2022-12-20T11:04:38.776Z,18.73
2022-12-20T11:07:29.027Z,19.67
2022-12-20T11:10:24.328Z,19.90
2022-12-20T11:13:25.895Z,19.83
2022-12-20T11:16:38.240Z,19.37
2022-12-20T11:19:33.502Z,18.93
2022-12-20T11:22:43.768Z,18.97
2022-12-20T11:25:53.653Z,21.57
2022-12-20T11:28:59.876Z,20.03
2022-12-20T11:32:16.545Z,18.67
2022-12-20T11:35:11.306Z,17.90
2022-12-20T11:38:22.181Z,17.73
2022-12-20T11:41:30.678Z,16.87
2022-12-20T11:44:53.940Z,16.83
2022-12-20T11:48:39.189Z,17.43
2022-12-20T11:51:46.753Z,16.53
2022-12-20T11:54:42.314Z,17.53
2022-12-20T11:58:16.460Z,16.80
2022-12-20T12:01:13.786Z,16.83
2022-12-20T12:04:12.572Z,17.60
2022-12-20T12:07:06.541Z,16.70
2022-12-20T12:10:22.093Z,18.10
2022-12-20T12:13:23.337Z,17.33
2022-12-20T12:16:22.950Z,17.07
2022-12-20T12:19:12.825Z,17.67
2022-12-20T12:22:05.816Z,18.23
2022-12-20T12:25:00.022Z,18.23
2022-12-20T12:27:47.002Z,16.67
2022-12-20T12:30:47.363Z,17.10
2022-12-20T12:33:42.226Z,18.27
2022-12-20T12:36:47.266Z,16.57
2022-12-20T12:40:01.071Z,18.33
2022-12-20T12:43:09.716Z,17.97
2022-12-20T12:46:01.425Z,18.23
2022-12-20T12:49:06.980Z,19.03
2022-12-20T12:52:00.099Z,17.63
2022-12-20T12:54:47.090Z,17.73
2022-12-20T12:57:57.981Z,18.43
2022-12-20T13:00:56.625Z,18.73
2022-12-20T13:04:11.231Z,18.63
2022-12-20T13:07:01.758Z,18.80
2022-12-20T13:09:49.118Z,17.43
2022-12-20T13:12:39.027Z,17.97
2022-12-20T13:15:25.934Z,18.50
2022-12-20T13:18:12.864Z,17.73
2022-12-20T13:21:30.675Z,18.70
2022-12-20T13:24:55.638Z,19.47
2022-12-20T13:27:42.624Z,19.23
2022-12-20T13:30:30.387Z,18.60
2022-12-20T13:33:40.204Z,18.90
2022-12-20T13:36:37.937Z,17.77
2022-12-20T13:39:25.299Z,18.57
2022-12-20T13:42:30.957Z,19.27
2022-12-20T13:45:18.524Z,17.97
2022-12-20T13:48:11.509Z,18.37
2022-12-20T13:50:59.138Z,18.73
2022-12-20T13:53:53.545Z,18.23
2022-12-20T13:56:49.484Z,19.90
2022-12-20T13:59:36.552Z,19.03
2022-12-20T14:02:33.197Z,18.07
2022-12-20T14:05:26.338Z,18.47
2022-12-20T14:08:17.472Z,19.00
2022-12-20T14:11:15.112Z,17.93
2022-12-20T14:14:04.642Z,19.30
2022-12-20T14:16:51.635Z,18.87
2022-12-20T14:19:38.602Z,18.90
2022-12-20T14:22:25.548Z,18.10
2022-12-20T14:25:16.743Z,18.63
2022-12-20T14:28:05.034Z,19.87
2022-12-20T14:30:52.063Z,19.17
2022-12-20T14:33:41.126Z,19.33
2022-12-20T14:36:30.606Z,18.60
2022-12-20T14:39:28.585Z,20.07
2022-12-20T14:42:19.212Z,18.20
2022-12-20T14:45:18.829Z,19.20
2022-12-20T14:48:15.327Z,17.87
2022-12-20T14:51:05.672Z,18.67
2022-12-20T14:53:53.382Z,18.50
2022-12-20T14:56:46.631Z,18.17
2022-12-20T14:59:33.654Z,19.40
2022-12-20T15:02:51.755Z,18.57
2022-12-20T15:05:45.459Z,19.17
2022-12-20T15:08:33.956Z,19.17
2022-12-20T15:11:22.992Z,18.33
2022-12-20T15:14:23.045Z,17.90
2022-12-20T15:17:13.199Z,17.87
2022-12-20T15:20:00.889Z,17.97
2022-12-20T15:22:47.838Z,18.57
2022-12-20T15:25:43.043Z,20.90
2022-12-20T15:28:33.102Z,19.50
2022-12-20T15:31:25.994Z,21.27
2022-12-20T15:34:25.402Z,18.77
2022-12-20T15:37:18.246Z,19.73
2022-12-20T15:40:07.019Z,19.37
2022-12-20T15:42:53.969Z,19.73
2022-12-20T15:45:43.296Z,18.97
2022-12-20T15:48:30.243Z,18.93
2022-12-20T15:51:37.075Z,19.53
2022-12-20T15:54:28.248Z,18.90
2022-12-20T15:57:15.801Z,20.10
2022-12-20T16:00:04.734Z,20.43
2022-12-20T16:03:02.313Z,19.77
2022-12-20T16:05:51.309Z,19.80
2022-12-20T16:08:39.617Z,19.70
2022-12-20T16:11:29.819Z,20.23
2022-12-20T16:14:21.110Z,18.10
2022-12-20T16:17:13.987Z,20.47
2022-12-20T16:20:00.942Z,18.80
2022-12-20T16:22:47.899Z,18.40
2022-12-20T16:25:36.588Z,19.00
2022-12-20T16:28:23.504Z,18.93
2022-12-20T16:31:34.536Z,19.90
2022-12-20T16:34:21.786Z,19.17
2022-12-20T16:37:08.946Z,18.13
2022-12-20T16:39:55.909Z,18.53
2022-12-20T16:42:42.815Z,19.03
2022-12-20T16:45:31.907Z,19.53
2022-12-20T16:48:18.833Z,19.00
2022-12-20T16:51:27.267Z,18.80
2022-12-20T16:54:22.997Z,17.93
2022-12-20T16:57:10.224Z,18.63
2022-12-20T16:59:57.204Z,17.50
2022-12-20T17:02:44.655Z,18.90
2022-12-20T17:05:36.294Z,19.40
2022-12-20T17:11:30.532Z,18.90
2022-12-20T17:14:19.726Z,19.13
2022-12-20T17:17:07.710Z,20.03
2022-12-20T17:19:54.633Z,20.37
2022-12-20T17:22:42.421Z,18.30
2022-12-20T17:25:35.718Z,18.93
2022-12-20T17:28:23.371Z,19.70
2022-12-20T17:31:24.679Z,18.47
2022-12-20T17:34:19.997Z,19.03
2022-12-20T17:37:07.799Z,19.50
2022-12-20T17:39:54.743Z,19.80
2022-12-20T17:42:42.809Z,20.27
2022-12-20T17:45:36.160Z,19.27
2022-12-20T17:48:27.424Z,20.87
2022-12-20T17:51:25.598Z,21.43
2022-12-20T17:54:18.719Z,23.00
2022-12-20T17:57:05.714Z,24.93
2022-12-20T17:59:52.638Z,22.63
2022-12-20T18:02:40.369Z,21.63
2022-12-20T18:05:27.495Z,21.27
2022-12-20T18:08:14.441Z,20.30
2022-12-20T18:11:01.381Z,20.40
2022-12-20T18:13:50.984Z,20.77
2022-12-20T18:16:41.442Z,19.90
2022-12-20T18:19:28.421Z,19.57
2022-12-20T18:22:15.394Z,20.57
2022-12-20T18:25:09.058Z,22.23
2022-12-20T18:27:56.259Z,22.10
2022-12-20T18:30:43.897Z,20.07
2022-12-20T18:33:30.914Z,20.37
2022-12-20T18:36:23.617Z,20.10
2022-12-20T18:39:12.401Z,19.70
2022-12-20T18:41:59.329Z,20.93
2022-12-20T18:44:46.228Z,20.50
2022-12-20T18:47:33.140Z,20.07
2022-12-20T18:50:20.982Z,19.20
2022-12-20T18:53:07.890Z,20.67
2022-12-20T18:55:54.830Z,20.77
2022-12-20T18:58:43.442Z,21.20
2022-12-20T19:01:33.406Z,21.03
2022-12-20T19:04:24.646Z,20.50
2022-12-20T19:07:12.194Z,20.00
2022-12-20T19:09:59.119Z,18.97
2022-12-20T19:12:46.078Z,18.40
2022-12-20T19:15:32.991Z,19.53
2022-12-20T19:18:19.899Z,20.00
2022-12-20T19:21:12.948Z,21.40
2022-12-20T19:24:04.907Z,24.00
2022-12-20T19:26:51.839Z,22.53
2022-12-20T19:29:38.795Z,24.00
2022-12-20T19:32:25.747Z,22.93
2022-12-20T19:35:52.813Z,20.43
2022-12-20T19:38:19.892Z,20.23
2022-12-20T19:41:06.838Z,20.57
2022-12-20T19:43:54.221Z,20.30
2022-12-20T19:46:41.507Z,21.40
2022-12-20T19:49:28.453Z,20.73
2022-12-20T19:52:15.803Z,22.13
2022-12-20T19:55:02.724Z,22.93
2022-12-20T19:57:49.731Z,22.73
2022-12-20T20:00:36.627Z,22.50
2022-12-20T20:03:23.942Z,20.57
2022-12-20T20:06:11.188Z,21.63
2022-12-20T20:08:59.838Z,21.90
2022-12-20T20:11:46.861Z,20.70
2022-12-20T20:14:33.830Z,20.87
2022-12-20T20:17:21.019Z,20.43
2022-12-20T20:20:08.659Z,19.70
2022-12-20T20:22:55.619Z,19.23
2022-12-20T20:25:54.643Z,20.20
2022-12-20T20:28:45.000Z,20.37
2022-12-20T20:31:32.818Z,20.83
2022-12-20T20:34:19.748Z,20.13
2022-12-20T20:37:06.900Z,20.50
2022-12-20T20:39:53.799Z,20.40
2022-12-20T20:42:41.423Z,19.93
2022-12-20T20:45:29.252Z,19.03
2022-12-20T20:48:16.354Z,19.47
2022-12-20T20:51:04.081Z,18.23
2022-12-20T20:53:51.053Z,18.57
2022-12-20T20:56:37.964Z,19.53
2022-12-20T20:59:24.974Z,18.50
2022-12-20T21:02:14.166Z,19.47
2022-12-20T21:05:52.558Z,18.43
2022-12-20T21:08:08.350Z,19.43
2022-12-20T21:10:55.391Z,18.57
2022-12-20T21:13:42.411Z,18.53
2022-12-20T21:16:29.408Z,18.97
2022-12-20T21:19:16.398Z,18.43
2022-12-20T21:22:03.474Z,18.70
2022-12-20T21:24:50.441Z,19.37
2022-12-20T21:27:37.684Z,19.03
2022-12-20T21:30:25.170Z,18.43
2022-12-20T21:33:12.477Z,19.17
2022-12-20T21:36:07.878Z,18.23
2022-12-20T21:38:57.127Z,19.00
2022-12-20T21:41:44.163Z,19.30
2022-12-20T21:44:31.167Z,20.17
2022-12-20T21:47:18.136Z,20.30
2022-12-20T21:50:05.918Z,20.60
2022-12-20T21:52:52.828Z,19.37
2022-12-20T21:55:39.851Z,18.30
2022-12-20T21:58:29.166Z,19.30
2022-12-20T22:01:20.087Z,18.77
2022-12-20T22:04:07.179Z,18.67
2022-12-20T22:06:54.089Z,18.17
2022-12-20T22:09:41.020Z,19.73
2022-12-20T22:12:27.936Z,18.13
2022-12-20T22:15:14.908Z,19.77
2022-12-20T22:18:02.040Z,19.47
2022-12-20T22:20:49.096Z,20.43
2022-12-20T22:23:37.383Z,19.43
2022-12-20T22:26:26.742Z,19.63
2022-12-20T22:29:13.714Z,19.23
2022-12-20T22:32:00.812Z,18.43
2022-12-20T22:34:47.814Z,20.07
2022-12-20T22:37:34.744Z,19.57
2022-12-20T22:40:23.039Z,19.10
2022-12-20T22:43:09.953Z,19.30
2022-12-20T22:45:58.508Z,18.57
2022-12-20T22:48:46.342Z,19.70
2022-12-20T22:51:33.825Z,19.50
2022-12-20T22:54:20.936Z,18.83
2022-12-20T22:57:10.313Z,19.27
2022-12-20T22:59:58.784Z,18.73
2022-12-20T23:02:45.996Z,19.33
2022-12-20T23:05:33.805Z,19.83
2022-12-20T23:08:22.431Z,20.57
2022-12-20T23:11:45.568Z,19.77
2022-12-20T23:14:51.270Z,19.50
2022-12-20T23:17:38.256Z,18.93
2022-12-20T23:20:43.601Z,19.33
2022-12-20T23:23:30.570Z,18.27
2022-12-20T23:26:17.977Z,18.90
2022-12-20T23:29:06.020Z,18.70
2022-12-20T23:31:53.060Z,19.80
2022-12-20T23:34:39.969Z,20.37
2022-12-20T23:37:28.493Z,19.23
2022-12-20T23:40:17.236Z,19.50
2022-12-20T23:43:04.159Z,18.70
2022-12-20T23:45:51.228Z,19.07
2022-12-20T23:48:38.540Z,20.03
2022-12-20T23:51:25.488Z,19.07
2022-12-20T23:54:12.612Z,20.27
2022-12-20T23:56:59.581Z,19.63
2022-12-20T23:59:46.549Z,19.40
